Time;durP1;ratioP1;P1;durP2;ratioP2;P2;SDS_P1;SDS_P2;PMS_P1;PMS_P2;Temp;Humidity;BMP_temperature;BMP_pressure;BME280_temperature;BME280_humidity;BME280_pressure;Samples;Min_cycle;Max_cycle;Signal;HPM_P1;HPM_P2
2021/10/14 00:00:22;;;;;;;4.18;2.20;;;6.80;99.90;;;;;;5030075;28;20049;-85
2021/10/14 00:02:47;;;;;;;3.80;2.13;;;7.20;99.90;;;;;;5016419;28;20017;-84
2021/10/14 00:05:13;;;;;;;2.75;1.92;;;7.30;99.90;;;;;;5016396;28;20132;-85
2021/10/14 00:07:39;;;;;;;4.20;2.40;;;7.90;99.90;;;;;;5016400;28;20421;-84
2021/10/14 00:10:06;;;;;;;3.38;1.77;;;8.10;99.90;;;;;;5034284;28;20025;-85
2021/10/14 00:12:32;;;;;;;4.10;2.03;;;8.20;99.90;;;;;;5034208;28;20026;-85
2021/10/14 00:14:58;;;;;;;2.92;1.75;;;8.70;99.90;;;;;;5016259;28;20032;-85
2021/10/14 00:17:24;;;;;;;3.33;1.90;;;8.60;99.90;;;;;;5016165;28;20079;-85
2021/10/14 00:19:50;;;;;;;2.95;1.38;;;8.50;99.90;;;;;;5016011;28;20025;-85
2021/10/14 00:22:16;;;;;;;2.88;1.80;;;8.10;99.90;;;;;;5016095;28;20021;-85
2021/10/14 00:24:42;;;;;;;3.42;1.73;;;8.10;99.90;;;;;;5016040;28;20036;-85
2021/10/14 00:27:07;;;;;;;5.40;1.88;;;8.20;99.90;;;;;;5033747;28;20540;-85
2021/10/14 00:29:33;;;;;;;2.65;1.60;;;7.90;99.90;;;;;;5015964;28;20082;-84
2021/10/14 00:31:59;;;;;;;4.63;1.98;;;7.90;99.90;;;;;;5015903;28;20021;-85
2021/10/14 00:34:24;;;;;;;5.03;1.98;;;8.20;99.90;;;;;;5015862;28;20037;-85
2021/10/14 00:36:50;;;;;;;2.25;1.70;;;8.50;99.90;;;;;;5015898;28;20035;-85
2021/10/14 00:39:16;;;;;;;3.03;1.70;;;8.10;99.90;;;;;;5033456;28;20021;-85
2021/10/14 00:41:41;;;;;;;4.30;1.83;;;8.00;99.90;;;;;;5033439;28;20470;-86
2021/10/14 00:44:07;;;;;;;3.60;1.65;;;8.00;99.90;;;;;;5015748;28;20025;-85
2021/10/14 00:46:33;;;;;;;1.92;1.60;;;8.20;99.90;;;;;;5016158;28;20377;-84
2021/10/14 00:48:59;;;;;;;3.28;1.85;;;8.50;99.90;;;;;;5015750;28;20022;-85
2021/10/14 00:51:24;;;;;;;3.45;1.70;;;8.00;99.90;;;;;;5033405;28;20036;-85
2021/10/14 00:53:50;;;;;;;2.60;1.60;;;7.80;99.90;;;;;;5032859;28;20026;-85
2021/10/14 00:56:16;;;;;;;3.20;1.70;;;7.70;99.90;;;;;;5015500;28;20080;-85
2021/10/14 00:58:42;;;;;;;3.33;1.60;;;8.00;99.90;;;;;;5015329;28;20481;-84
2021/10/14 01:01:08;;;;;;;3.70;1.52;;;7.70;99.90;;;;;;5015490;28;20029;-85
2021/10/14 01:03:34;;;;;;;2.88;1.58;;;7.70;99.90;;;;;;5015534;28;20028;-85
2021/10/14 01:06:00;;;;;;;1.80;1.55;;;7.70;99.90;;;;;;5015479;28;20022;-84
2021/10/14 01:08:26;;;;;;;2.60;1.35;;;7.50;99.90;;;;;;5033451;28;20105;-85
2021/10/14 01:10:52;;;;;;;2.38;1.83;;;7.20;99.90;;;;;;5015474;28;20378;-85
2021/10/14 01:13:18;;;;;;;2.88;1.77;;;7.00;99.90;;;;;;5015422;28;20084;-85
2021/10/14 01:15:47;;;;;;;2.45;1.70;;;6.90;99.90;;;;;;5015349;28;20029;-85
2021/10/14 01:18:13;;;;;;;2.05;1.48;;;6.70;99.90;;;;;;5015392;28;20085;-85
2021/10/14 01:20:39;;;;;;;2.50;1.40;;;7.00;99.90;;;;;;5015478;28;20120;-85
2021/10/14 01:23:05;;;;;;;2.58;1.55;;;6.80;99.90;;;;;;5015311;28;20464;-85
2021/10/14 01:25:31;;;;;;;2.10;1.55;;;6.80;99.90;;;;;;5015225;28;20116;-85
2021/10/14 01:27:57;;;;;;;3.15;1.65;;;6.60;99.90;;;;;;5015361;28;20028;-85
2021/10/14 01:30:23;;;;;;;3.58;1.58;;;6.60;99.90;;;;;;5015242;28;20075;-85
2021/10/14 01:32:49;;;;;;;2.55;1.35;;;7.00;99.90;;;;;;5015187;28;20060;-84
2021/10/14 01:35:16;;;;;;;2.97;1.48;;;7.20;99.90;;;;;;5015422;28;20072;-86
2021/10/14 01:37:42;;;;;;;5.03;1.63;;;7.50;99.90;;;;;;5015246;28;20040;-85
2021/10/14 01:40:09;;;;;;;3.75;1.50;;;7.70;99.90;;;;;;5015343;28;20037;-85
2021/10/14 01:42:35;;;;;;;1.92;1.58;;;7.80;99.90;;;;;;5015131;28;20207;-85
2021/10/14 01:45:01;;;;;;;3.15;1.70;;;7.60;99.90;;;;;;5015163;28;20032;-85
2021/10/14 01:47:31;;;;;;;2.30;1.23;;;7.70;99.90;;;;;;5015062;28;20022;-85
2021/10/14 01:49:57;;;;;;;4.05;1.77;;;7.30;99.90;;;;;;5015140;28;20092;-86
2021/10/14 01:52:23;;;;;;;2.60;1.52;;;7.70;99.90;;;;;;5032812;28;20017;-85
2021/10/14 01:54:49;;;;;;;1.60;1.25;;;7.60;99.90;;;;;;5015029;28;20025;-85
2021/10/14 01:57:15;;;;;;;3.63;1.60;;;7.70;99.90;;;;;;5015020;28;20026;-85
2021/10/14 01:59:41;;;;;;;4.00;1.35;;;7.90;99.90;;;;;;5014892;28;20042;-85
2021/10/14 02:02:06;;;;;;;1.27;1.10;;;7.70;99.90;;;;;;5032872;28;20465;-85
2021/10/14 02:04:33;;;;;;;3.33;1.40;;;7.50;99.90;;;;;;5014959;28;20529;-85
2021/10/14 02:06:59;;;;;;;2.40;1.40;;;7.70;99.90;;;;;;5017806;28;20018;-85
2021/10/14 02:09:25;;;;;;;1.65;1.27;;;8.00;99.90;;;;;;5018633;28;20030;-85
2021/10/14 02:11:50;;;;;;;2.70;1.38;;;7.90;99.90;;;;;;5018633;28;20033;-85
2021/10/14 02:14:16;;;;;;;1.67;1.25;;;7.90;99.90;;;;;;5018503;28;20393;-85
2021/10/14 02:16:42;;;;;;;3.60;1.55;;;7.90;99.90;;;;;;5018327;28;20117;-85
2021/10/14 02:19:08;;;;;;;3.90;1.20;;;7.70;99.90;;;;;;5018974;28;20037;-85
2021/10/14 02:21:33;;;;;;;3.15;1.35;;;8.00;99.90;;;;;;5018252;28;20508;-85
2021/10/14 02:23:59;;;;;;;2.03;1.40;;;7.80;99.90;;;;;;5018330;28;20022;-85
2021/10/14 02:26:25;;;;;;;1.88;1.15;;;7.50;99.90;;;;;;5018302;28;20485;-85
2021/10/14 02:28:50;;;;;;;2.28;1.20;;;7.70;99.90;;;;;;5018244;28;20131;-84
2021/10/14 02:31:16;;;;;;;4.70;1.48;;;7.70;99.90;;;;;;5018179;28;20032;-85
2021/10/14 02:33:42;;;;;;;3.50;1.35;;;7.60;99.90;;;;;;5035819;28;20021;-85
2021/10/14 02:36:07;;;;;;;1.50;1.30;;;7.00;99.90;;;;;;5036078;28;20033;-85
2021/10/14 02:38:33;;;;;;;4.72;1.45;;;7.10;99.90;;;;;;5035735;28;20437;-85
2021/10/14 02:40:59;;;;;;;2.33;1.60;;;7.00;99.90;;;;;;5017896;28;20477;-85
2021/10/14 02:43:25;;;;;;;2.28;1.23;;;7.00;99.90;;;;;;5017858;28;20032;-85
2021/10/14 02:45:51;;;;;;;3.75;1.30;;;7.20;99.90;;;;;;5017803;28;20481;-85
2021/10/14 02:48:17;;;;;;;3.03;1.50;;;6.90;99.90;;;;;;5035548;28;20025;-85
2021/10/14 02:50:42;;;;;;;1.58;1.33;;;6.90;99.90;;;;;;5018072;28;20440;-85
2021/10/14 02:53:08;;;;;;;1.95;1.15;;;6.40;99.90;;;;;;5017798;28;20499;-85
2021/10/14 02:55:34;;;;;;;3.40;1.33;;;6.80;99.90;;;;;;5017728;28;20025;-85
2021/10/14 02:57:59;;;;;;;2.22;1.20;;;6.80;99.90;;;;;;5017610;28;20493;-84
2021/10/14 03:00:25;;;;;;;2.55;1.33;;;6.80;99.90;;;;;;5017377;28;20519;-85
2021/10/14 03:02:51;;;;;;;2.70;1.33;;;6.90;99.90;;;;;;5017614;28;20018;-85
2021/10/14 03:05:16;;;;;;;1.40;1.10;;;6.90;99.90;;;;;;5018733;28;20132;-85
2021/10/14 03:07:42;;;;;;;3.38;1.70;;;6.50;99.90;;;;;;5036604;28;20362;-85
2021/10/14 03:10:08;;;;;;;3.10;1.55;;;6.30;99.90;;;;;;5017470;28;20021;-85
2021/10/14 03:12:34;;;;;;;2.45;1.23;;;5.90;99.90;;;;;;5018272;28;20553;-85
2021/10/14 03:15:01;;;;;;;2.00;1.27;;;6.10;99.90;;;;;;5017411;28;20061;-85
2021/10/14 03:17:27;;;;;;;3.03;1.33;;;6.50;99.90;;;;;;5017444;28;20420;-85
2021/10/14 03:19:53;;;;;;;2.53;1.20;;;6.50;99.90;;;;;;5017129;28;20025;-85
2021/10/14 03:22:19;;;;;;;5.38;1.20;;;6.70;99.90;;;;;;5017218;28;20121;-85
2021/10/14 03:24:44;;;;;;;2.88;1.30;;;6.70;99.90;;;;;;5017148;28;20033;-85
2021/10/14 03:27:10;;;;;;;2.95;1.40;;;6.70;99.90;;;;;;5017197;28;20071;-85
2021/10/14 03:29:36;;;;;;;3.28;1.48;;;6.40;99.90;;;;;;5034811;28;20053;-85
2021/10/14 03:32:02;;;;;;;1.10;1.00;;;6.20;99.90;;;;;;5017007;28;20060;-85
2021/10/14 03:34:27;;;;;;;1.50;1.23;;;6.60;99.90;;;;;;5016891;28;20040;-85
2021/10/14 03:36:53;;;;;;;2.00;1.10;;;6.90;99.90;;;;;;5016902;28;20061;-85
2021/10/14 03:39:19;;;;;;;1.73;1.20;;;7.40;99.90;;;;;;5016778;28;20120;-85
2021/10/14 03:41:45;;;;;;;2.08;1.10;;;7.30;99.90;;;;;;5016781;28;20029;-85
2021/10/14 03:44:13;;;;;;;2.33;1.40;;;7.50;99.90;;;;;;5016968;28;20025;-85
2021/10/14 03:46:40;;;;;;;2.38;1.10;;;7.20;99.90;;;;;;5017852;28;20530;-85
2021/10/14 03:49:06;;;;;;;1.80;1.25;;;7.00;99.90;;;;;;5016856;28;20079;-86
2021/10/14 03:51:32;;;;;;;2.88;1.10;;;6.70;99.90;;;;;;5034442;28;20025;-85
2021/10/14 03:53:58;;;;;;;1.50;1.27;;;6.70;99.90;;;;;;5016829;28;20037;-85
2021/10/14 03:56:24;;;;;;;1.85;1.20;;;6.80;99.90;;;;;;5016916;28;20124;-85
2021/10/14 03:58:50;;;;;;;3.15;1.42;;;6.90;99.90;;;;;;5016717;28;20125;-85
2021/10/14 04:01:16;;;;;;;1.83;1.10;;;6.30;99.90;;;;;;5016613;28;20109;-85
2021/10/14 04:03:42;;;;;;;1.63;1.20;;;6.50;99.90;;;;;;5016715;28;20128;-85
2021/10/14 04:06:08;;;;;;;3.47;1.27;;;6.50;99.90;;;;;;5016377;28;20021;-84
2021/10/14 04:08:33;;;;;;;1.17;1.00;;;6.70;99.90;;;;;;5016287;28;20025;-85
2021/10/14 04:10:59;;;;;;;5.32;1.60;;;6.40;99.90;;;;;;5034316;28;20039;-85
2021/10/14 04:13:25;;;;;;;1.88;1.42;;;6.40;99.90;;;;;;5016193;28;20030;-85
2021/10/14 04:15:51;;;;;;;4.53;1.40;;;6.10;99.90;;;;;;5033912;28;20108;-85
2021/10/14 04:18:16;;;;;;;3.35;1.40;;;6.20;99.90;;;;;;5016314;28;20021;-85
2021/10/14 04:20:42;;;;;;;3.33;1.67;;;6.00;99.90;;;;;;5016143;28;20044;-85
2021/10/14 04:23:08;;;;;;;1.50;1.40;;;5.80;99.90;;;;;;5016104;28;20024;-85
2021/10/14 04:25:34;;;;;;;4.43;1.40;;;5.80;99.90;;;;;;5033728;28;20380;-85
2021/10/14 04:28:00;;;;;;;2.72;1.38;;;6.30;99.90;;;;;;5015325;28;20105;-85
2021/10/14 04:30:26;;;;;;;1.48;1.27;;;6.10;99.90;;;;;;5015923;28;20033;-85
2021/10/14 04:32:51;;;;;;;2.25;1.67;;;6.10;99.90;;;;;;5015849;28;20385;-85
2021/10/14 04:35:18;;;;;;;2.05;1.40;;;6.10;99.90;;;;;;5015907;28;20073;-85
2021/10/14 04:37:43;;;;;;;6.00;1.73;;;5.90;99.90;;;;;;5033630;28;20393;-85
2021/10/14 04:40:10;;;;;;;2.40;1.52;;;5.80;99.90;;;;;;5015808;28;20033;-85
2021/10/14 04:42:36;;;;;;;2.70;1.70;;;6.10;99.90;;;;;;5016102;28;20026;-84
2021/10/14 04:45:03;;;;;;;2.25;1.23;;;6.30;99.90;;;;;;5015787;28;20032;-84
2021/10/14 04:47:29;;;;;;;2.60;1.60;;;6.40;99.90;;;;;;5015718;28;20121;-85
2021/10/14 04:49:54;;;;;;;4.35;1.55;;;6.50;99.90;;;;;;5015662;28;20052;-85
2021/10/14 04:52:20;;;;;;;3.58;2.00;;;6.80;99.90;;;;;;5016950;28;20057;-85
2021/10/14 04:54:46;;;;;;;2.58;1.60;;;6.90;99.90;;;;;;5016510;28;20032;-84
2021/10/14 04:57:11;;;;;;;2.40;1.50;;;6.50;99.90;;;;;;5033547;28;20048;-85
2021/10/14 04:59:37;;;;;;;2.85;1.40;;;6.10;99.90;;;;;;5015484;28;20096;-85
2021/10/14 05:02:03;;;;;;;2.88;1.60;;;5.80;99.90;;;;;;5032997;28;20026;-85
2021/10/14 05:04:29;;;;;;;2.55;1.42;;;6.10;99.90;;;;;;5015396;28;20021;-85
2021/10/14 05:06:55;;;;;;;3.25;1.67;;;6.60;99.90;;;;;;5015504;28;20080;-85
2021/10/14 05:09:21;;;;;;;4.35;2.10;;;6.40;99.90;;;;;;5015430;28;20029;-84
2021/10/14 05:11:46;;;;;;;5.18;1.70;;;5.90;99.90;;;;;;5015733;28;20068;-85
2021/10/14 05:14:12;;;;;;;2.13;1.63;;;5.60;99.90;;;;;;5015452;28;20025;-85
2021/10/14 05:16:38;;;;;;;2.83;2.00;;;5.70;99.90;;;;;;5034437;28;20056;-85
2021/10/14 05:19:04;;;;;;;2.92;1.90;;;5.70;99.90;;;;;;5015923;28;20028;-84
2021/10/14 05:21:30;;;;;;;3.85;1.83;;;5.90;99.90;;;;;;5015258;28;20029;-84
2021/10/14 05:24:00;;;;;;;5.43;1.70;;;6.50;99.90;;;;;;5015575;28;20018;-84
2021/10/14 05:26:30;;;;;;;4.63;1.98;;;6.30;99.90;;;;;;5015490;28;20032;-85
2021/10/14 05:28:58;;;;;;;6.32;2.35;;;5.90;99.90;;;;;;5015241;28;20026;-84
2021/10/14 05:31:24;;;;;;;5.35;1.85;;;6.20;99.90;;;;;;5015263;28;20389;-85
2021/10/14 05:33:51;;;;;;;4.28;2.00;;;6.30;99.90;;;;;;5015151;28;20025;-85
2021/10/14 05:36:16;;;;;;;3.15;2.22;;;6.00;99.90;;;;;;5015227;28;20029;-85
2021/10/14 05:38:43;;;;;;;3.25;2.20;;;5.80;99.90;;;;;;5015110;28;20028;-85
2021/10/14 05:41:09;;;;;;;2.85;1.85;;;5.90;99.90;;;;;;5018481;28;20025;-84
2021/10/14 05:43:34;;;;;;;3.90;2.00;;;6.00;99.90;;;;;;5036701;28;20100;-85
2021/10/14 05:46:00;;;;;;;4.28;1.83;;;5.90;99.90;;;;;;5018997;28;20072;-85
2021/10/14 05:48:26;;;;;;;3.50;1.80;;;6.30;99.90;;;;;;5036707;28;20049;-86
2021/10/14 05:50:52;;;;;;;3.35;1.90;;;6.50;99.90;;;;;;5018766;28;20040;-85
2021/10/14 05:53:17;;;;;;;3.10;1.80;;;6.20;99.90;;;;;;5037224;28;20053;-85
2021/10/14 05:55:43;;;;;;;4.40;2.15;;;6.20;99.90;;;;;;5018999;28;20025;-85
2021/10/14 05:58:09;;;;;;;2.47;1.92;;;6.10;99.90;;;;;;5019045;28;20516;-85
2021/10/14 06:00:34;;;;;;;2.08;1.45;;;6.10;99.90;;;;;;5015395;28;20053;-85
2021/10/14 06:03:00;;;;;;;2.35;1.75;;;6.20;99.90;;;;;;5015454;28;20466;-85
2021/10/14 06:05:26;;;;;;;2.72;1.65;;;6.50;99.90;;;;;;5016831;28;20075;-85
2021/10/14 06:07:51;;;;;;;2.08;1.50;;;6.60;99.90;;;;;;5015369;28;20022;-85
2021/10/14 06:10:17;;;;;;;2.25;1.52;;;6.80;99.90;;;;;;5015342;28;20026;-85
2021/10/14 06:12:43;;;;;;;9.90;1.95;;;6.60;99.90;;;;;;5016670;28;20489;-85
2021/10/14 06:15:09;;;;;;;3.75;2.13;;;6.80;99.90;;;;;;5015293;28;20385;-85
2021/10/14 06:17:35;;;;;;;4.95;2.10;;;7.00;99.90;;;;;;5015143;28;20026;-85
2021/10/14 06:20:02;;;;;;;3.22;1.98;;;7.10;99.90;;;;;;5015167;28;20126;-84
2021/10/14 06:22:27;;;;;;;2.47;1.60;;;7.10;99.90;;;;;;5015054;28;20033;-85
2021/10/14 06:24:53;;;;;;;2.85;1.60;;;7.20;99.90;;;;;;5014949;28;20478;-85
2021/10/14 06:27:19;;;;;;;3.13;1.90;;;7.30;99.90;;;;;;5015025;28;20047;-85
2021/10/14 06:29:44;;;;;;;3.53;1.60;;;7.40;99.90;;;;;;5014905;28;20485;-85
2021/10/14 06:32:10;;;;;;;2.88;1.58;;;7.50;99.90;;;;;;5014849;28;20026;-84
2021/10/14 06:34:36;;;;;;;3.35;1.92;;;7.70;99.90;;;;;;5015922;28;20079;-85
2021/10/14 06:37:02;;;;;;;3.65;1.83;;;7.50;99.90;;;;;;5014759;28;20030;-85
2021/10/14 06:39:28;;;;;;;3.78;1.63;;;7.40;99.90;;;;;;5014665;28;20057;-84
2021/10/14 06:41:56;;;;;;;6.38;2.13;;;7.50;99.90;;;;;;5014638;28;20028;-85
2021/10/14 06:44:22;;;;;;;3.13;1.85;;;7.40;99.90;;;;;;5014566;28;20022;-85
2021/10/14 06:46:49;;;;;;;5.82;2.50;;;7.20;99.90;;;;;;5014855;28;20036;-84
2021/10/14 06:49:14;;;;;;;4.57;3.03;;;7.20;99.90;;;;;;5014593;28;20026;-85
2021/10/14 06:51:40;;;;;;;3.85;2.53;;;6.90;99.90;;;;;;5013969;28;20113;-84
2021/10/14 06:54:06;;;;;;;4.35;1.98;;;7.00;99.90;;;;;;5014501;28;20478;-85
2021/10/14 06:56:32;;;;;;;3.40;2.20;;;6.80;99.90;;;;;;5015745;28;20029;-85
2021/10/14 06:58:57;;;;;;;5.03;2.13;;;6.90;99.90;;;;;;5014143;28;20046;-85
2021/10/14 07:01:23;;;;;;;18.30;5.22;;;6.80;99.90;;;;;;5014318;28;20505;-85
2021/10/14 07:03:49;;;;;;;12.15;4.10;;;6.60;99.90;;;;;;5014214;28;20022;-85
2021/10/14 07:06:15;;;;;;;4.13;2.85;;;6.50;99.90;;;;;;5014532;28;20107;-85
2021/10/14 07:08:42;;;;;;;4.85;2.30;;;6.60;99.90;;;;;;5015455;28;20046;-85
2021/10/14 07:11:08;;;;;;;6.97;3.88;;;6.70;99.90;;;;;;5014119;28;20026;-85
2021/10/14 07:13:34;;;;;;;4.47;3.47;;;7.00;99.90;;;;;;5014078;28;20036;-85
2021/10/14 07:15:59;;;;;;;3.10;2.45;;;7.10;99.90;;;;;;5013756;28;20401;-84
2021/10/14 07:18:25;;;;;;;5.15;2.38;;;7.40;99.90;;;;;;5013508;28;20041;-85
2021/10/14 07:20:51;;;;;;;6.35;2.58;;;7.50;99.90;;;;;;5013878;28;20547;-85
2021/10/14 07:23:17;;;;;;;2.40;1.80;;;7.80;99.90;;;;;;5015218;28;20030;-85
2021/10/14 07:25:44;;;;;;;4.40;2.53;;;8.00;99.90;;;;;;5013887;28;20473;-84
2021/10/14 07:28:11;;;;;;;4.13;2.05;;;7.90;99.90;;;;;;5014101;28;20030;-85
2021/10/14 07:30:39;;;;;;;3.05;1.90;;;8.10;99.90;;;;;;5013691;28;20029;-85
2021/10/14 07:33:05;;;;;;;4.80;2.20;;;8.50;99.90;;;;;;5013672;28;20030;-86
2021/10/14 07:35:39;;;;;;;3.58;1.92;;;8.60;99.90;;;;;;5013952;28;20520;-85
2021/10/14 07:38:10;;;;;;;7.93;2.35;;;8.70;99.90;;;;;;5013730;28;20482;-85
2021/10/14 07:40:41;;;;;;;2.55;2.00;;;9.00;99.90;;;;;;5013587;28;20033;-85
2021/10/14 07:43:12;;;;;;;4.22;2.08;;;8.90;99.90;;;;;;5013543;28;20029;-85
2021/10/14 07:45:39;;;;;;;4.00;2.05;;;8.90;99.90;;;;;;5013527;28;20492;-85
2021/10/14 07:48:07;;;;;;;5.70;2.72;;;8.80;99.90;;;;;;5013217;28;20026;-85
2021/10/14 07:50:34;;;;;;;7.75;3.47;;;8.70;99.90;;;;;;5013208;28;20111;-85
2021/10/14 07:52:59;;;;;;;3.47;2.60;;;8.40;99.90;;;;;;5013630;28;20076;-84
2021/10/14 07:55:25;;;;;;;7.28;2.88;;;8.20;99.90;;;;;;5013239;28;20038;-85
2021/10/14 07:57:51;;;;;;;5.18;2.50;;;8.30;99.90;;;;;;5013316;28;20034;-85
2021/10/14 08:00:16;;;;;;;9.20;2.90;;;8.50;99.90;;;;;;5013101;28;20077;-85
2021/10/14 08:02:42;;;;;;;6.50;3.03;;;8.80;99.90;;;;;;5013441;28;20017;-85
2021/10/14 08:05:09;;;;;;;10.45;3.05;;;8.90;99.90;;;;;;5013532;28;20033;-86
2021/10/14 08:07:35;;;;;;;4.95;2.67;;;9.30;99.90;;;;;;5013896;28;20084;-86
2021/10/14 08:10:01;;;;;;;4.93;2.60;;;9.60;99.90;;;;;;5013814;28;20026;-86
2021/10/14 08:12:27;;;;;;;4.15;2.47;;;9.80;99.90;;;;;;5013066;28;20402;-86
2021/10/14 08:14:53;;;;;;;7.15;2.90;;;9.90;99.90;;;;;;5013071;28;20527;-86
2021/10/14 08:17:19;;;;;;;6.70;3.70;;;10.20;99.90;;;;;;5013015;28;20029;-85
2021/10/14 08:19:45;;;;;;;4.78;2.78;;;10.40;99.90;;;;;;5012902;28;20116;-85
2021/10/14 08:22:10;;;;;;;7.35;2.45;;;10.50;99.90;;;;;;5012866;28;20034;-85
2021/10/14 08:24:38;;;;;;;6.78;2.75;;;10.40;99.90;;;;;;5012624;28;20046;-85
2021/10/14 08:27:04;;;;;;;6.75;2.85;;;10.60;99.90;;;;;;5012777;28;20504;-85
2021/10/14 08:29:29;;;;;;;4.30;2.42;;;10.70;99.90;;;;;;5013004;28;20018;-86
2021/10/14 08:31:57;;;;;;;6.75;2.80;;;10.90;99.90;;;;;;5012701;28;20045;-86
2021/10/14 08:34:23;;;;;;;6.25;2.33;;;11.10;99.90;;;;;;5012623;28;20029;-86
2021/10/14 08:36:49;;;;;;;4.13;2.40;;;11.20;99.90;;;;;;5012604;28;20436;-86
2021/10/14 08:39:14;;;;;;;4.53;2.60;;;11.50;99.90;;;;;;5012504;28;20076;-87
2021/10/14 08:41:44;;;;;;;7.80;2.60;;;11.70;99.90;;;;;;5012572;28;20084;-86
2021/10/14 08:44:13;;;;;;;6.43;2.33;;;11.80;99.90;;;;;;5012738;28;20076;-86
2021/10/14 08:46:40;;;;;;;3.22;2.20;;;11.90;99.90;;;;;;5013303;28;20419;-86
2021/10/14 08:49:08;;;;;;;5.32;1.70;;;12.30;99.90;;;;;;5012469;28;20486;-87
2021/10/14 08:51:35;;;;;;;7.68;3.28;;;12.10;99.90;;;;;;5012387;28;20026;-86
2021/10/14 08:54:01;;;;;;;15.23;7.10;;;11.60;99.90;;;;;;5012360;28;20033;-86
2021/10/14 08:56:28;;;;;;;12.95;5.63;;;11.90;99.90;;;;;;5012386;28;20030;-85
2021/10/14 08:58:54;;;;;;;6.88;2.28;;;11.90;99.90;;;;;;5017076;28;20048;-85
2021/10/14 09:01:20;;;;;;;2.90;1.90;;;11.80;99.90;;;;;;5015490;28;20025;-85
2021/10/14 09:03:52;;;;;;;7.78;2.45;;;12.00;99.90;;;;;;5015488;28;20026;-86
2021/10/14 09:06:18;;;;;;;7.60;2.30;;;12.50;99.90;;;;;;5015718;28;20017;-85
2021/10/14 09:08:52;;;;;;;5.68;2.28;;;12.60;99.90;;;;;;5015408;28;20079;-85
2021/10/14 09:11:23;;;;;;;7.65;2.35;;;12.70;99.90;;;;;;5015322;28;20104;-85
2021/10/14 09:13:52;;;;;;;5.30;2.03;;;12.80;99.90;;;;;;5015558;28;20026;-85
2021/10/14 09:16:20;;;;;;;7.18;2.10;;;12.80;99.90;;;;;;5015275;28;20033;-86
2021/10/14 09:18:47;;;;;;;9.50;2.00;;;12.60;99.90;;;;;;5033047;28;20387;-85
2021/10/14 09:21:30;;;;;;;4.22;1.90;;;12.20;99.90;;;;;;5015330;28;20031;-85
2021/10/14 09:24:00;;;;;;;8.70;2.15;;;12.60;99.90;;;;;;5015370;28;20405;-85
2021/10/14 09:26:33;;;;;;;3.20;1.70;;;12.80;99.90;;;;;;5015915;28;20071;-85
2021/10/14 09:29:13;;;;;;;2.00;1.60;;;13.30;99.90;;;;;;5015206;28;20017;-85
2021/10/14 09:31:49;;;;;;;4.38;2.00;;;13.20;99.90;;;;;;5015267;28;20025;-85
2021/10/14 09:34:50;;;;;;;3.50;1.70;;;13.70;99.90;;;;;;5033069;28;20509;-86
2021/10/14 09:37:18;;;;;;;14.70;2.25;;;14.00;99.90;;;;;;4917854;29;20032;-85
2021/10/14 09:40:04;;;;;;;5.65;1.88;;;14.00;99.90;;;;;;4997079;28;20034;-85
2021/10/14 09:42:56;;;;;;;3.83;1.63;;;14.30;99.90;;;;;;5015052;28;20060;-86
2021/10/14 09:45:34;;;;;;;6.28;1.98;;;14.40;99.90;;;;;;5015255;28;20027;-85
2021/10/14 09:48:03;;;;;;;5.15;1.80;;;15.00;99.90;;;;;;5015017;28;20080;-85
2021/10/14 09:50:43;;;;;;;4.72;2.05;;;15.00;99.90;;;;;;5015030;28;20100;-85
2021/10/14 09:53:15;;;;;;;10.20;2.13;;;15.30;99.90;;;;;;5015024;28;20030;-84
2021/10/14 09:55:41;;;;;;;4.88;1.73;;;14.90;99.90;;;;;;5015042;28;20022;-85
2021/10/14 09:58:07;;;;;;;4.47;1.65;;;14.90;99.90;;;;;;5015065;28;20480;-85
2021/10/14 10:00:35;;;;;;;3.72;2.25;;;14.80;99.90;;;;;;5011512;28;20045;-85
2021/10/14 10:03:04;;;;;;;5.00;2.33;;;14.60;99.90;;;;;;5011742;28;20023;-85
2021/10/14 10:05:30;;;;;;;5.78;2.13;;;14.10;99.90;;;;;;5013042;28;20018;-85
2021/10/14 10:07:59;;;;;;;7.43;2.08;;;14.50;99.90;;;;;;5011611;28;20054;-85
2021/10/14 10:10:27;;;;;;;12.05;3.78;;;15.10;99.90;;;;;;5012074;28;20484;-86
2021/10/14 10:12:55;;;;;;;33.40;14.40;;;15.00;99.90;;;;;;5012124;28;20049;-86
2021/10/14 10:16:10;;;;;;;5.28;2.20;;;14.80;99.90;;;;;;5011931;28;20022;-85
2021/10/14 10:18:39;;;;;;;3.45;1.70;;;15.10;99.90;;;;;;4917703;29;20519;-85
2021/10/14 10:21:07;;;;;;;4.45;2.08;;;15.10;99.90;;;;;;5003591;28;20512;-85
2021/10/14 10:23:47;;;;;;;6.18;2.10;;;15.40;99.90;;;;;;5011550;28;20029;-85
2021/10/14 10:26:37;;;;;;;3.70;1.70;;;15.60;99.90;;;;;;5013058;28;20432;-85
2021/10/14 10:29:29;;;;;;;4.85;1.92;;;15.80;99.90;;;;;;5014964;28;20045;-85
2021/10/14 10:34:48;;;;;;;3.42;2.30;;;16.60;99.90;;;;;;5016187;28;20068;-85
2021/10/14 10:40:18;;;;;;;6.00;2.25;;;16.20;99.90;;;;;;5016150;28;20494;-84
2021/10/14 10:42:58;;;;;;;4.57;2.35;;;15.80;99.90;;;;;;5014805;28;20022;-85
2021/10/14 10:45:48;;;;;;;8.77;2.10;;;16.40;99.90;;;;;;5014738;28;20025;-84
2021/10/14 10:48:15;;;;;;;6.22;2.15;;;16.80;99.90;;;;;;5014769;28;20030;-85
2021/10/14 10:50:41;;;;;;;7.35;2.53;;;17.60;99.90;;;;;;5014549;28;20037;-84
2021/10/14 10:53:36;;;;;;;6.38;2.30;;;17.50;99.90;;;;;;5014552;28;20030;-85
2021/10/14 10:56:02;;;;;;;6.25;2.20;;;17.60;99.90;;;;;;5014833;28;20551;-84
2021/10/14 10:58:28;;;;;;;7.13;2.55;;;18.00;99.90;;;;;;5014390;28;20037;-85
2021/10/14 11:00:54;;;;;;;5.50;2.13;;;18.00;99.90;;;;;;5017913;28;20386;-84
2021/10/14 11:03:22;;;;;;;4.22;1.90;;;18.30;99.90;;;;;;5017979;28;20022;-84
2021/10/14 11:05:52;;;;;;;4.78;2.03;;;18.60;99.90;;;;;;5017535;28;20022;-84
2021/10/14 11:08:22;;;;;;;3.20;1.70;;;18.70;99.90;;;;;;5017776;28;20032;-84
2021/10/14 11:10:59;;;;;;;6.47;2.15;;;18.30;99.90;;;;;;5017451;28;20032;-84
2021/10/14 11:13:27;;;;;;;5.97;2.00;;;17.70;99.90;;;;;;5017378;28;20092;-84
2021/10/14 11:15:55;;;;;;;7.40;2.08;;;18.40;99.90;;;;;;5017338;28;20071;-84
2021/10/14 11:18:22;;;;;;;8.88;2.10;;;18.80;99.90;;;;;;5017326;28;20032;-84
2021/10/14 11:20:57;;;;;;;5.32;2.15;;;18.50;99.90;;;;;;5017256;28;20394;-83
2021/10/14 11:23:24;;;;;;;;;;;18.60;99.90;;;;;;5017701;28;20473;-83
2021/10/14 11:26:32;;;;;;;6.65;2.00;;;18.70;99.90;;;;;;5017167;28;20344;-83
2021/10/14 11:29:22;;;;;;;4.80;1.75;;;19.10;99.90;;;;;;4970806;28;20029;-83
2021/10/14 11:32:02;;;;;;;2.92;1.80;;;19.50;99.90;;;;;;5017187;28;20029;-83
2021/10/14 11:34:28;;;;;;;5.70;1.70;;;20.40;99.90;;;;;;5017080;28;20029;-83
2021/10/14 11:37:02;;;;;;;5.05;1.90;;;20.20;99.90;;;;;;5016931;28;20599;-83
2021/10/14 11:39:39;;;;;;;7.78;1.60;;;19.70;99.90;;;;;;5034488;28;20037;-84
2021/10/14 11:42:13;;;;;;;4.55;1.50;;;19.30;99.90;;;;;;5016753;28;20044;-83
2021/10/14 11:44:46;;;;;;;6.10;1.67;;;19.50;99.90;;;;;;5016882;28;20029;-83
2021/10/14 11:47:17;;;;;;;4.97;1.65;;;19.40;99.90;;;;;;5034531;28;20018;-83
2021/10/14 11:49:43;;;;;;;7.07;1.52;;;19.20;99.90;;;;;;5034469;28;20048;-83
2021/10/14 11:52:11;;;;;;;5.72;1.30;;;19.20;99.90;;;;;;5016682;28;20026;-83
2021/10/14 11:54:38;;;;;;;7.47;1.42;;;19.00;99.90;;;;;;5016625;28;20036;-83
2021/10/14 11:57:06;;;;;;;2.47;1.40;;;20.60;99.20;;;;;;5034403;28;20025;-84
2021/10/14 11:59:34;;;;;;;2.38;1.10;;;22.20;97.20;;;;;;5016374;28;20057;-83
2021/10/14 12:02:06;;;;;;;3.72;1.20;;;21.70;96.50;;;;;;5016443;28;20037;-83
2021/10/14 12:04:44;;;;;;;4.63;1.80;;;22.00;95.40;;;;;;5016552;28;20029;-83
2021/10/14 12:07:16;;;;;;;5.85;1.38;;;21.00;95.70;;;;;;5016469;28;20366;-83
2021/10/14 12:09:42;;;;;;;3.95;1.17;;;20.70;96.80;;;;;;5016409;28;20113;-84
2021/10/14 12:12:08;;;;;;;3.13;1.42;;;21.90;95.90;;;;;;5034098;28;20105;-84
2021/10/14 12:14:36;;;;;;;5.10;1.33;;;21.30;95.00;;;;;;5016240;28;20025;-84
2021/10/14 12:17:12;;;;;;;5.03;1.30;;;22.10;95.20;;;;;;5016312;28;20029;-83
2021/10/14 12:19:44;;;;;;;3.45;1.20;;;21.70;93.60;;;;;;5016405;28;20481;-84
2021/10/14 12:22:22;;;;;;;2.30;1.30;;;21.90;93.60;;;;;;5016232;28;20486;-83
2021/10/14 12:24:50;;;;;;;4.07;1.33;;;21.40;93.70;;;;;;5033927;28;20026;-83
2021/10/14 12:27:16;;;;;;;2.97;1.17;;;22.00;93.30;;;;;;5033817;28;20057;-84
2021/10/14 12:29:46;;;;;;;3.17;1.10;;;22.70;92.00;;;;;;5016411;28;20172;-85
2021/10/14 12:32:16;;;;;;;2.72;1.10;;;23.20;92.00;;;;;;5016276;28;20481;-84
2021/10/14 12:34:57;;;;;;;1.30;0.90;;;24.00;90.70;;;;;;5016050;28;20128;-84
2021/10/14 12:37:30;;;;;;;4.32;1.20;;;24.20;89.50;;;;;;5016105;28;20021;-84
2021/10/14 12:40:15;;;;;;;9.25;1.08;;;24.50;88.00;;;;;;5015774;28;20095;-84
2021/10/14 12:48:22;;;;;;;4.35;1.17;;;24.70;85.00;;;;;;5033499;28;20037;-84
2021/10/14 12:51:09;;;;;;;3.63;1.25;;;25.10;84.60;;;;;;5015003;28;20053;-84
2021/10/14 12:53:45;;;;;;;4.88;1.23;;;;;;;;;;5015707;28;20064;-85
2021/10/14 12:56:17;;;;;;;2.40;1.10;;;25.60;80.10;;;;;;5015629;28;20025;-84
2021/10/14 12:58:44;;;;;;;3.22;1.10;;;25.70;79.20;;;;;;5015415;28;20052;-84
2021/10/14 13:01:13;;;;;;;4.32;0.98;;;25.80;78.60;;;;;;5015547;28;20120;-83
2021/10/14 13:03:40;;;;;;;2.50;1.02;;;25.80;78.30;;;;;;5015509;28;20021;-84
2021/10/14 13:06:06;;;;;;;2.90;0.95;;;25.70;78.20;;;;;;5015543;28;20435;-84
2021/10/14 13:08:39;;;;;;;5.80;1.35;;;25.70;78.00;;;;;;5015526;28;20036;-84